createdAt,value
2022-10-22T00:01:43.712Z,97362.69
2022-10-22T00:03:45.030Z,97361.78
2022-10-22T00:05:46.303Z,97371.91
2022-10-22T00:07:47.594Z,97390.53
2022-10-22T00:09:48.875Z,97412.63
2022-10-22T00:11:50.157Z,97414.28
2022-10-22T00:13:51.508Z,97417.78
2022-10-22T00:15:52.841Z,97427.28
2022-10-22T00:17:54.121Z,97428.16
2022-10-22T00:19:55.425Z,97445.84
2022-10-22T00:21:58.409Z,97442.56
2022-10-22T00:23:59.726Z,97438.34
2022-10-22T00:26:01.043Z,97434.19
2022-10-22T00:28:02.577Z,97431.66
2022-10-22T00:30:03.856Z,97432.56
2022-10-22T00:32:05.146Z,97431.72
2022-10-22T00:34:06.402Z,97427.50
2022-10-22T00:36:07.741Z,97437.03
2022-10-22T00:38:09.005Z,97437.03
2022-10-22T00:40:10.336Z,97450.69
2022-10-22T00:42:11.617Z,97441.41
2022-10-22T00:44:12.892Z,97421.81
2022-10-22T00:46:14.192Z,97406.47
2022-10-22T00:48:16.160Z,97418.47
2022-10-22T00:50:17.433Z,97413.44
2022-10-22T00:52:18.716Z,97410.13
2022-10-22T00:54:20.071Z,97417.91
2022-10-22T00:56:21.566Z,97412.00
2022-10-22T00:58:22.856Z,97421.41
2022-10-22T01:00:24.142Z,97407.00
2022-10-22T01:02:25.465Z,97402.75
2022-10-22T01:04:26.740Z,97396.13
2022-10-22T01:06:28.030Z,97386.81
2022-10-22T01:08:29.329Z,97392.81
2022-10-22T01:10:30.618Z,97388.53
2022-10-22T01:12:31.914Z,97390.31
2022-10-22T01:14:33.189Z,97390.34
2022-10-22T01:16:34.447Z,97386.97
2022-10-22T01:18:35.774Z,97397.06
2022-10-22T01:20:37.069Z,97399.63
2022-10-22T01:22:38.606Z,97403.81
2022-10-22T01:24:39.922Z,97403.69
2022-10-22T01:26:41.198Z,97396.00
2022-10-22T01:28:42.491Z,97389.03
2022-10-22T01:30:44.051Z,97387.34
2022-10-22T01:32:45.843Z,97383.84
2022-10-22T01:34:47.109Z,97382.13
2022-10-22T01:36:48.817Z,97388.00
2022-10-22T01:38:50.106Z,97397.34
2022-10-22T01:40:51.552Z,97393.84
2022-10-22T01:42:52.846Z,97396.25
2022-10-22T01:44:54.179Z,97397.00
2022-10-22T01:46:56.018Z,97403.81
2022-10-22T01:48:57.501Z,97396.91
2022-10-22T01:50:58.782Z,97399.47
2022-10-22T01:53:00.574Z,97405.41
2022-10-22T01:55:01.852Z,97403.72
2022-10-22T01:57:03.161Z,97401.09
2022-10-22T01:59:04.545Z,97397.72
2022-10-22T02:01:05.830Z,97401.09
2022-10-22T02:03:07.574Z,97408.72
2022-10-22T02:05:08.886Z,97407.09
2022-10-22T02:07:10.214Z,97398.50
2022-10-22T02:09:11.528Z,97400.97
2022-10-22T02:11:12.948Z,97395.94
2022-10-22T02:13:14.283Z,97403.63
2022-10-22T02:15:15.559Z,97398.59
2022-10-22T02:17:16.898Z,97396.03
2022-10-22T02:19:18.231Z,97397.75
2022-10-22T02:21:19.562Z,97403.78
2022-10-22T02:23:20.845Z,97399.56
2022-10-22T02:25:22.183Z,97403.88
2022-10-22T02:27:26.026Z,97398.03
2022-10-22T02:29:28.514Z,97395.63
2022-10-22T02:31:29.780Z,97392.34
2022-10-22T02:33:31.053Z,97392.41
2022-10-22T02:35:32.386Z,97392.41
2022-10-22T02:37:33.675Z,97391.59
2022-10-22T02:39:34.990Z,97390.00
2022-10-22T02:41:36.619Z,97391.78
2022-10-22T02:43:37.890Z,97397.66
2022-10-22T02:45:39.195Z,97389.28
2022-10-22T02:47:40.526Z,97385.81
2022-10-22T02:49:41.806Z,97388.47
2022-10-22T02:51:43.089Z,97391.09
2022-10-22T02:53:44.390Z,97389.22
2022-10-22T02:55:45.699Z,97384.09
2022-10-22T02:57:46.959Z,97380.66
2022-10-22T02:59:48.235Z,97385.78
2022-10-22T03:01:49.491Z,97381.47
2022-10-22T03:03:50.770Z,97385.66
2022-10-22T03:05:52.039Z,97380.44
2022-10-22T03:07:53.376Z,97392.28
2022-10-22T03:09:54.653Z,97388.00
2022-10-22T03:11:56.192Z,97390.53
2022-10-22T03:13:57.478Z,97395.53
2022-10-22T03:15:58.764Z,97401.53
2022-10-22T03:18:00.105Z,97396.44
2022-10-22T03:20:01.357Z,97391.28
2022-10-22T03:22:02.618Z,97387.91
2022-10-22T03:24:03.894Z,97387.81
2022-10-22T03:26:05.215Z,97379.25
2022-10-22T03:28:06.526Z,97372.38
2022-10-22T03:30:08.682Z,97382.59
2022-10-22T03:32:09.967Z,97385.06
2022-10-22T03:34:13.456Z,97379.13
2022-10-22T03:36:14.764Z,97385.06
2022-10-22T03:38:16.126Z,97391.88
2022-10-22T03:40:17.427Z,97379.97
2022-10-22T03:42:18.717Z,97384.13
2022-10-22T03:44:20.024Z,97388.38
2022-10-22T03:46:21.300Z,97391.00
2022-10-22T03:48:22.681Z,97391.09
2022-10-22T03:50:23.965Z,97393.69
2022-10-22T03:52:25.262Z,97267.97
2022-10-22T03:54:26.609Z,97403.97
2022-10-22T03:56:27.950Z,97405.75
2022-10-22T03:58:29.205Z,97413.56
2022-10-22T04:00:30.532Z,97406.16
2022-10-22T04:02:31.818Z,97405.38
2022-10-22T04:04:33.128Z,97413.00
2022-10-22T04:06:34.423Z,97274.50
2022-10-22T04:08:35.744Z,97417.50
2022-10-22T04:10:37.057Z,97420.13
2022-10-22T04:12:38.372Z,97417.69
2022-10-22T04:14:39.674Z,97413.41
2022-10-22T04:16:40.945Z,97417.72
2022-10-22T04:18:42.238Z,97411.00
2022-10-22T04:20:43.519Z,97410.22
2022-10-22T04:22:44.858Z,97419.59
2022-10-22T04:24:46.215Z,97407.66
2022-10-22T04:26:47.591Z,97410.19
2022-10-22T04:28:49.089Z,97411.00
2022-10-22T04:30:50.347Z,97406.88
2022-10-22T04:32:51.611Z,97405.94
2022-10-22T04:34:52.919Z,97409.28
2022-10-22T04:36:54.186Z,97426.28
2022-10-22T04:38:55.506Z,97419.28
2022-10-22T04:40:56.991Z,97415.75
2022-10-22T04:42:58.263Z,97409.75
2022-10-22T04:44:59.553Z,97421.59
2022-10-22T04:47:00.887Z,97287.28
2022-10-22T04:49:04.768Z,97423.97
2022-10-22T04:51:06.680Z,97424.56
2022-10-22T04:53:07.951Z,97421.88
2022-10-22T04:55:09.231Z,97418.31
2022-10-22T04:57:10.512Z,97408.81
2022-10-22T04:59:12.770Z,97414.72
2022-10-22T05:01:14.178Z,97418.97
2022-10-22T05:03:15.647Z,97414.81
2022-10-22T05:05:16.918Z,97421.59
2022-10-22T05:07:18.277Z,97421.53
2022-10-22T05:09:19.664Z,97417.25
2022-10-22T05:11:21.018Z,97420.72
2022-10-22T05:13:22.302Z,97423.28
2022-10-22T05:15:23.580Z,97424.22
2022-10-22T05:17:24.850Z,97418.38
2022-10-22T05:19:26.204Z,97421.91
2022-10-22T05:21:27.783Z,97410.97
2022-10-22T05:23:29.072Z,97417.84
2022-10-22T05:25:31.063Z,97418.78
2022-10-22T05:27:32.354Z,97423.06
2022-10-22T05:29:33.647Z,97427.28
2022-10-22T05:31:34.961Z,97424.78
2022-10-22T05:33:36.235Z,97423.22
2022-10-22T05:35:37.503Z,97417.38
2022-10-22T05:37:39.114Z,97420.81
2022-10-22T05:39:41.627Z,97427.72
2022-10-22T05:41:42.927Z,97431.13
2022-10-22T05:43:44.801Z,97428.66
2022-10-22T05:45:46.080Z,97432.13
2022-10-22T05:47:47.371Z,97440.69
2022-10-22T05:49:48.686Z,97444.06
2022-10-22T05:51:49.978Z,97447.50
2022-10-22T05:53:51.392Z,97449.28
2022-10-22T05:55:52.727Z,97446.72
2022-10-22T05:57:54.003Z,97456.09
2022-10-22T05:59:55.266Z,97456.97
2022-10-22T06:01:56.618Z,97459.59
2022-10-22T06:03:57.966Z,97465.66
2022-10-22T06:05:59.243Z,97463.28
2022-10-22T06:08:00.542Z,97452.28
2022-10-22T06:12:03.073Z,97447.31
2022-10-22T06:14:04.355Z,97451.59
2022-10-22T06:16:05.650Z,97458.47
2022-10-22T06:18:06.939Z,97476.38
2022-10-22T06:20:08.203Z,97478.91
2022-10-22T06:22:09.465Z,97466.81
2022-10-22T06:24:10.781Z,97463.03
2022-10-22T06:26:12.153Z,97477.22
2022-10-22T06:28:13.502Z,97471.81
2022-10-22T06:30:14.836Z,97469.69
2022-10-22T06:32:16.142Z,97469.44
2022-10-22T06:34:18.934Z,97476.06
2022-10-22T06:36:20.263Z,97478.47
2022-10-22T06:38:21.607Z,97479.97
2022-10-22T06:40:23.266Z,97484.91
2022-10-22T06:42:24.529Z,97482.16
2022-10-22T06:44:25.825Z,97486.25
2022-10-22T06:46:27.210Z,97487.94
2022-10-22T06:48:28.490Z,97490.50
2022-10-22T06:50:29.777Z,97482.81
2022-10-22T06:52:31.088Z,97494.78
2022-10-22T06:54:35.883Z,97500.91
2022-10-22T06:56:37.222Z,97495.81
2022-10-22T06:58:38.860Z,97495.03
2022-10-22T07:00:40.183Z,97491.75
2022-10-22T07:02:41.913Z,97497.00
2022-10-22T07:04:43.651Z,97501.38
2022-10-22T07:06:44.927Z,97502.38
2022-10-22T07:08:46.301Z,97495.63
2022-10-22T07:10:47.621Z,97490.56
2022-10-22T07:12:48.881Z,97502.53
2022-10-22T07:14:50.190Z,97499.97
2022-10-22T07:16:51.485Z,97509.50
2022-10-22T07:18:52.904Z,97501.97
2022-10-22T07:20:54.179Z,97506.31
2022-10-22T07:22:55.439Z,97513.16
2022-10-22T07:24:56.738Z,97514.94
2022-10-22T07:26:58.069Z,97508.22
2022-10-22T07:28:59.391Z,97509.22
2022-10-22T07:31:00.694Z,97511.00
2022-10-22T07:33:01.950Z,97505.06
2022-10-22T07:35:03.233Z,97513.59
2022-10-22T07:37:04.598Z,97522.16
2022-10-22T07:39:05.930Z,97512.84
2022-10-22T07:41:10.267Z,97526.44
2022-10-22T07:43:11.554Z,97533.59
2022-10-22T07:45:12.928Z,97533.88
2022-10-22T07:47:14.207Z,97545.00
2022-10-22T07:49:15.493Z,97552.75
2022-10-22T07:51:19.589Z,97547.66
2022-10-22T07:53:21.354Z,97554.38
2022-10-22T07:55:22.629Z,97542.44
2022-10-22T07:57:23.955Z,97549.16
2022-10-22T07:59:25.231Z,97547.31
2022-10-22T08:01:26.536Z,97546.31
2022-10-22T08:03:27.901Z,97537.84
2022-10-22T08:05:29.167Z,97529.34
2022-10-22T08:07:30.488Z,97547.81
2022-10-22T08:09:31.758Z,97561.13
2022-10-22T08:11:33.587Z,97564.84
2022-10-22T08:13:34.870Z,97569.25
2022-10-22T08:15:36.220Z,97563.34
2022-10-22T08:17:37.538Z,97568.50
2022-10-22T08:19:44.977Z,97562.56
2022-10-22T08:21:46.249Z,97558.88
2022-10-22T08:23:47.555Z,97564.88
2022-10-22T08:25:48.871Z,97561.41
2022-10-22T08:27:50.223Z,97569.94
2022-10-22T08:29:51.538Z,97568.53
2022-10-22T08:31:52.811Z,97564.34
2022-10-22T08:33:54.115Z,97563.91
2022-10-22T08:35:55.383Z,97568.78
2022-10-22T08:37:56.725Z,97569.44
2022-10-22T08:39:58.000Z,97561.56
2022-10-22T08:41:59.415Z,97562.28
2022-10-22T08:44:00.706Z,97562.19
2022-10-22T08:46:01.989Z,97574.13
2022-10-22T08:48:03.432Z,97574.97
2022-10-22T08:50:04.742Z,97570.75
2022-10-22T08:52:06.096Z,97575.09
2022-10-22T08:54:07.473Z,97582.72
2022-10-22T08:56:08.756Z,97576.75
2022-10-22T08:58:15.926Z,97580.16
2022-10-22T09:00:17.230Z,97577.59
2022-10-22T09:02:18.513Z,97569.13
2022-10-22T09:04:25.293Z,97576.78
2022-10-22T09:06:26.676Z,97445.03
2022-10-22T09:08:28.050Z,97565.94
2022-10-22T09:10:29.374Z,97567.69
2022-10-22T09:12:30.666Z,97566.03
2022-10-22T09:14:31.944Z,97568.63
2022-10-22T09:16:33.215Z,97570.38
2022-10-22T09:18:34.563Z,97566.13
2022-10-22T09:20:35.840Z,97573.78
2022-10-22T09:22:37.206Z,97572.19
2022-10-22T09:24:38.653Z,97567.09
2022-10-22T09:26:39.965Z,97566.31
2022-10-22T09:28:41.282Z,97563.72
2022-10-22T09:30:43.436Z,97555.22
2022-10-22T09:32:44.722Z,97554.38
2022-10-22T09:34:46.003Z,97554.44
2022-10-22T09:36:47.274Z,97546.81
2022-10-22T09:38:48.589Z,97545.97
2022-10-22T09:40:49.958Z,97554.44
2022-10-22T09:42:51.257Z,97556.94
2022-10-22T09:44:52.575Z,97550.97
2022-10-22T09:46:53.942Z,97570.56
2022-10-22T09:48:55.286Z,97583.28
2022-10-22T09:50:56.611Z,97582.44
2022-10-22T09:52:57.875Z,97581.63
2022-10-22T09:54:59.191Z,97584.97
2022-10-22T09:57:00.482Z,97577.03
2022-10-22T09:59:01.773Z,97581.38
2022-10-22T10:01:03.174Z,97580.47
2022-10-22T10:03:04.534Z,97577.97
2022-10-22T10:05:05.887Z,97594.25
2022-10-22T10:07:07.223Z,97576.44
2022-10-22T10:09:08.623Z,97579.88
2022-10-22T10:11:10.405Z,97579.00
2022-10-22T10:13:11.685Z,97578.97
2022-10-22T10:15:12.966Z,97581.53
2022-10-22T10:17:14.279Z,97577.09
2022-10-22T10:19:15.602Z,97571.06
2022-10-22T10:21:16.890Z,97573.53
2022-10-22T10:23:20.609Z,97574.50
2022-10-22T10:25:24.554Z,97579.22
2022-10-22T10:27:25.850Z,97584.09
2022-10-22T10:29:28.150Z,97576.41
2022-10-22T10:31:29.438Z,97583.38
2022-10-22T10:33:30.741Z,97575.16
2022-10-22T10:35:32.111Z,97577.94
2022-10-22T10:37:33.392Z,97568.59
2022-10-22T10:39:34.721Z,97574.66
2022-10-22T10:41:36.043Z,97582.69
2022-10-22T10:43:37.338Z,97584.19
2022-10-22T10:45:41.629Z,97587.47
2022-10-22T10:47:43.436Z,97582.00
2022-10-22T10:49:45.071Z,97579.50
2022-10-22T10:51:46.391Z,97586.66
2022-10-22T10:53:47.665Z,97587.75
2022-10-22T10:55:48.951Z,97581.94
2022-10-22T10:57:50.243Z,97585.41
2022-10-22T10:59:51.543Z,97573.53
2022-10-22T11:01:52.858Z,97576.94
2022-10-22T11:03:54.178Z,97582.91
2022-10-22T11:05:56.158Z,97580.97
2022-10-22T11:07:58.389Z,97497.19
2022-10-22T11:09:59.926Z,97581.28
2022-10-22T11:12:01.192Z,97577.69
2022-10-22T11:14:02.470Z,97587.75
2022-10-22T11:16:03.762Z,97589.91
2022-10-22T11:18:06.078Z,97581.75
2022-10-22T11:20:07.390Z,97585.97
2022-10-22T11:22:08.666Z,97585.97
2022-10-22T11:24:09.961Z,97582.59
2022-10-22T11:26:11.682Z,97579.28
2022-10-22T11:28:13.000Z,97581.94
2022-10-22T11:30:14.275Z,97582.84
2022-10-22T11:32:15.583Z,97576.78
2022-10-22T11:34:32.664Z,97579.34
2022-10-22T11:36:34.788Z,97573.22
2022-10-22T11:38:36.785Z,97574.66
2022-10-22T11:40:38.182Z,97584.75
2022-10-22T11:42:39.525Z,97584.88
2022-10-22T11:44:40.868Z,97582.31
2022-10-22T11:46:42.229Z,97593.31
2022-10-22T11:48:43.510Z,97595.16
2022-10-22T11:50:45.037Z,97601.34
2022-10-22T11:52:46.316Z,97601.34
2022-10-22T11:54:47.627Z,97608.94
2022-10-22T11:56:49.047Z,97596.16
2022-10-22T11:58:53.747Z,97608.13
2022-10-22T12:00:56.215Z,97597.13
2022-10-22T12:02:57.499Z,97604.47
2022-10-22T12:04:58.887Z,97616.44
2022-10-22T12:07:03.152Z,97612.28
2022-10-22T12:09:05.680Z,97613.13
2022-10-22T12:11:06.978Z,97622.28
2022-10-22T12:13:08.286Z,97615.88
2022-10-22T12:15:09.573Z,97624.13
2022-10-22T12:17:11.006Z,97624.03
2022-10-22T12:19:12.878Z,97624.84
2022-10-22T12:21:14.363Z,97628.19
2022-10-22T12:23:15.858Z,97613.66
2022-10-22T12:25:22.131Z,97624.63
2022-10-22T12:27:23.485Z,97623.81
2022-10-22T12:29:26.606Z,97623.06
2022-10-22T12:31:27.938Z,97622.88
2022-10-22T12:33:29.202Z,97629.59
2022-10-22T12:35:30.514Z,97618.53
2022-10-22T12:37:31.779Z,97625.19
2022-10-22T12:39:35.379Z,97626.09
2022-10-22T12:41:36.698Z,97550.00
2022-10-22T12:43:39.548Z,97632.94
2022-10-22T12:45:40.878Z,97627.91
2022-10-22T12:47:42.380Z,97628.66
2022-10-22T12:49:44.254Z,97621.53
2022-10-22T12:51:45.663Z,97623.72
2022-10-22T12:53:46.963Z,97625.09
2022-10-22T12:55:49.524Z,97624.09
2022-10-22T12:57:50.837Z,97629.97
2022-10-22T12:59:52.186Z,97632.47
2022-10-22T13:01:53.602Z,97626.41
2022-10-22T13:03:54.911Z,97641.72
2022-10-22T13:05:56.194Z,97631.31
2022-10-22T13:07:57.487Z,97621.00
2022-10-22T13:09:58.820Z,97624.41
2022-10-22T13:12:01.717Z,97628.66
2022-10-22T13:14:03.018Z,97628.59
2022-10-22T13:16:04.323Z,97627.53
2022-10-22T13:18:05.643Z,97625.09
2022-10-22T13:20:09.629Z,97631.69
2022-10-22T13:22:10.922Z,97631.91
2022-10-22T13:24:12.184Z,97635.53
2022-10-22T13:26:13.496Z,97633.88
2022-10-22T13:28:14.831Z,97628.97
2022-10-22T13:30:16.114Z,97631.25
2022-10-22T13:32:17.395Z,97626.00
2022-10-22T13:34:18.665Z,97633.31
2022-10-22T13:36:19.961Z,97628.84
2022-10-22T13:38:21.249Z,97622.38
2022-10-22T13:40:22.576Z,97627.72
2022-10-22T13:42:23.890Z,97637.25
2022-10-22T13:44:25.184Z,97635.75
2022-10-22T13:46:26.467Z,97640.00
2022-10-22T13:48:27.813Z,97633.72
2022-10-22T13:50:29.076Z,97638.31
2022-10-22T13:52:30.452Z,97643.63
2022-10-22T13:54:31.768Z,97632.75
2022-10-22T13:56:33.088Z,97638.84
2022-10-22T13:58:34.408Z,97640.63
2022-10-22T14:00:35.982Z,97642.41
2022-10-22T14:02:37.327Z,97646.81
2022-10-22T14:04:38.634Z,97641.28
2022-10-22T14:06:39.901Z,97636.81
2022-10-22T14:08:41.277Z,97641.31
2022-10-22T14:10:42.606Z,97636.94
2022-10-22T14:12:43.934Z,97639.25
2022-10-22T14:14:45.244Z,97643.84
2022-10-22T14:16:46.586Z,97514.47
2022-10-22T14:18:47.935Z,97638.78
2022-10-22T14:20:52.113Z,97645.56
2022-10-22T14:22:53.508Z,97644.97
2022-10-22T14:24:55.334Z,97645.66
2022-10-22T14:26:56.591Z,97649.25
2022-10-22T14:29:13.888Z,97649.16
2022-10-22T14:31:15.215Z,97651.19
2022-10-22T14:33:16.530Z,97653.91
2022-10-22T14:35:17.824Z,97647.94
2022-10-22T14:37:19.193Z,97654.88
2022-10-22T14:39:21.626Z,97656.00
2022-10-22T14:41:22.977Z,97656.84
2022-10-22T14:43:24.334Z,97662.97
2022-10-22T14:45:25.614Z,97656.22
2022-10-22T14:47:26.901Z,97661.53
2022-10-22T14:49:28.167Z,97663.44
2022-10-22T14:51:29.439Z,97659.00
2022-10-22T14:53:30.826Z,97659.81
2022-10-22T14:55:32.163Z,97665.84
2022-10-22T14:57:33.507Z,97676.84
2022-10-22T14:59:34.874Z,97666.31
2022-10-22T15:01:36.179Z,97668.22
2022-10-22T15:03:37.494Z,97657.09
2022-10-22T15:05:42.095Z,97665.78
2022-10-22T15:07:43.672Z,97670.91
2022-10-22T15:09:45.204Z,97669.78
2022-10-22T15:11:46.534Z,97670.69
2022-10-22T15:13:47.850Z,97666.50
2022-10-22T15:15:49.113Z,97668.44
2022-10-22T15:17:50.422Z,97673.59
2022-10-22T15:19:53.134Z,97672.66
2022-10-22T15:21:54.464Z,97684.97
2022-10-22T15:23:55.759Z,97682.22
2022-10-22T15:25:57.014Z,97685.94
2022-10-22T15:28:04.639Z,97684.16
2022-10-22T15:30:10.323Z,97679.03
2022-10-22T15:32:11.637Z,97675.19
2022-10-22T15:34:12.930Z,97682.44
2022-10-22T15:36:14.329Z,97690.88
2022-10-22T15:38:15.652Z,97687.84
2022-10-22T15:40:16.987Z,97694.25
2022-10-22T15:42:21.129Z,97691.03
2022-10-22T15:44:22.414Z,97695.94
2022-10-22T15:46:25.605Z,97695.09
2022-10-22T15:48:26.887Z,97704.69
2022-10-22T15:50:28.241Z,97704.88
2022-10-22T15:52:29.524Z,97710.28
2022-10-22T15:54:30.829Z,97713.00
2022-10-22T15:56:32.118Z,97718.81
2022-10-22T15:58:33.407Z,97721.66
2022-10-22T16:00:35.520Z,97728.81
2022-10-22T16:02:36.913Z,97733.41
2022-10-22T16:04:38.403Z,97729.41
2022-10-22T16:06:39.702Z,97730.59
2022-10-22T16:08:41.063Z,97734.78
2022-10-22T16:10:42.354Z,97742.78
2022-10-22T16:12:44.032Z,97743.09
2022-10-22T16:14:45.579Z,97743.00
2022-10-22T16:16:46.875Z,97745.16
2022-10-22T16:18:48.146Z,97742.34
2022-10-22T16:20:49.439Z,97746.03
2022-10-22T16:22:50.779Z,97748.63
2022-10-22T16:24:52.097Z,97750.38
2022-10-22T16:26:59.095Z,97757.34
2022-10-22T16:29:00.407Z,97757.03
2022-10-22T16:31:01.745Z,97756.09
2022-10-22T16:33:03.575Z,97760.38
2022-10-22T16:35:05.095Z,97760.28
2022-10-22T16:37:10.181Z,97760.56
2022-10-22T16:39:11.981Z,97762.53
2022-10-22T16:41:15.184Z,97762.84
2022-10-22T16:43:16.446Z,97763.97
2022-10-22T16:45:17.736Z,97769.38
2022-10-22T16:47:19.246Z,97773.00
2022-10-22T16:49:20.513Z,97776.69
2022-10-22T16:51:21.783Z,97779.88
2022-10-22T16:53:23.105Z,97778.00
2022-10-22T16:55:24.438Z,97785.31
2022-10-22T16:57:25.757Z,97782.56
2022-10-22T16:59:29.798Z,97780.00
2022-10-22T17:01:31.119Z,97780.66
2022-10-22T17:03:32.419Z,97780.50
2022-10-22T17:05:33.687Z,97784.97
2022-10-22T17:07:34.956Z,97788.38
2022-10-22T17:09:36.416Z,97787.13
2022-10-22T17:11:40.154Z,97793.03
2022-10-22T17:13:43.818Z,97795.03
2022-10-22T17:15:45.088Z,97795.88
2022-10-22T17:17:50.903Z,97798.44
2022-10-22T17:19:52.203Z,97807.06
2022-10-22T17:21:54.320Z,97803.47
2022-10-22T17:23:55.953Z,97806.88
2022-10-22T17:26:00.291Z,97799.06
2022-10-22T17:28:01.566Z,97804.78
2022-10-22T17:30:02.857Z,97818.72
2022-10-22T17:32:06.947Z,97812.13
2022-10-22T17:34:08.266Z,97810.28
2022-10-22T17:36:10.938Z,97816.06
2022-10-22T17:38:12.263Z,97816.91
2022-10-22T17:40:13.582Z,97817.47
2022-10-22T17:42:14.878Z,97819.19
2022-10-22T17:44:16.183Z,97820.38
2022-10-22T17:46:17.815Z,97817.34
2022-10-22T17:48:19.135Z,97818.97
2022-10-22T17:50:20.454Z,97822.38
2022-10-22T17:52:21.726Z,97824.56
2022-10-22T17:54:22.995Z,97822.28
2022-10-22T17:56:24.292Z,97828.25
2022-10-22T17:58:25.586Z,97835.41
2022-10-22T18:00:32.831Z,97838.16
2022-10-22T18:02:34.115Z,97837.88
2022-10-22T18:04:35.452Z,97842.84
2022-10-22T18:06:36.778Z,97853.28
2022-10-22T18:08:38.201Z,97844.56
2022-10-22T18:10:39.566Z,97856.72
2022-10-22T18:12:41.062Z,97853.25
2022-10-22T18:14:44.047Z,97858.19
2022-10-22T18:16:45.535Z,97855.44
2022-10-22T18:18:47.519Z,97865.31
2022-10-22T18:20:48.798Z,97869.00
2022-10-22T18:22:50.095Z,97873.44
2022-10-22T18:24:53.023Z,97870.97
2022-10-22T18:26:54.378Z,97872.78
2022-10-22T18:28:55.650Z,97876.28
2022-10-22T18:30:56.967Z,97871.31
2022-10-22T18:32:58.290Z,97875.88
2022-10-22T18:34:59.575Z,97875.47
2022-10-22T18:37:00.862Z,97869.78
2022-10-22T18:39:02.205Z,97876.47
2022-10-22T18:41:03.614Z,97866.13
2022-10-22T18:43:04.906Z,97868.53
2022-10-22T18:45:06.206Z,97867.69
2022-10-22T18:47:08.670Z,97879.31
2022-10-22T18:49:11.685Z,97870.75
2022-10-22T18:51:12.966Z,97872.25
2022-10-22T18:53:14.237Z,97877.88
2022-10-22T18:55:15.606Z,97878.72
2022-10-22T18:57:16.904Z,97879.03
2022-10-22T18:59:21.370Z,97885.22
2022-10-22T19:01:22.792Z,97882.38
2022-10-22T19:03:24.105Z,97887.63
2022-10-22T19:05:25.415Z,97878.81
2022-10-22T19:07:26.731Z,97884.16
2022-10-22T19:09:28.853Z,97890.88
2022-10-22T19:11:30.343Z,97886.28
2022-10-22T19:13:31.623Z,97893.00
2022-10-22T19:15:32.931Z,97894.44
2022-10-22T19:17:34.233Z,97895.19
2022-10-22T19:19:35.507Z,97894.25
2022-10-22T19:21:36.814Z,97893.56
2022-10-22T19:23:38.157Z,97887.84
2022-10-22T19:25:39.468Z,97892.47
2022-10-22T19:27:41.254Z,97889.13
2022-10-22T19:29:42.766Z,97894.41
2022-10-22T19:31:44.474Z,97894.44
2022-10-22T19:33:47.694Z,97889.75
2022-10-22T19:35:48.980Z,97885.03
2022-10-22T19:37:52.063Z,97893.91
2022-10-22T19:39:53.374Z,97892.31
2022-10-22T19:41:54.666Z,97898.28
2022-10-22T19:43:55.921Z,97908.63
2022-10-22T19:45:57.312Z,97903.72
2022-10-22T19:47:58.574Z,97907.97
2022-10-22T19:49:59.853Z,97905.97
2022-10-22T19:52:01.194Z,97906.75
2022-10-22T19:54:02.465Z,97908.09
2022-10-22T19:56:03.721Z,97912.09
2022-10-22T19:58:05.000Z,97908.84
2022-10-22T20:00:06.262Z,97919.16
2022-10-22T20:02:07.790Z,97918.25
2022-10-22T20:04:09.117Z,97915.75
2022-10-22T20:06:10.414Z,97924.28
2022-10-22T20:08:11.690Z,97920.69
2022-10-22T20:10:13.045Z,97915.59
2022-10-22T20:12:14.330Z,97930.03
2022-10-22T20:14:15.631Z,97931.94
2022-10-22T20:16:16.962Z,97932.41
2022-10-22T20:18:18.299Z,97923.28
2022-10-22T20:20:23.017Z,97928.94
2022-10-22T20:22:26.915Z,97851.91
2022-10-22T20:24:28.245Z,97932.94
2022-10-22T20:26:29.565Z,97924.91
2022-10-22T20:28:30.846Z,97925.72
2022-10-22T20:30:32.205Z,97930.94
2022-10-22T20:32:33.684Z,97939.56
2022-10-22T20:34:35.002Z,97945.50
2022-10-22T20:36:36.310Z,97943.75
2022-10-22T20:40:43.820Z,97948.25
2022-10-22T20:42:46.309Z,97945.78
2022-10-22T20:44:47.595Z,97945.69
2022-10-22T20:46:48.926Z,97941.47
2022-10-22T20:48:50.290Z,97945.75
2022-10-22T20:50:51.574Z,97949.13
2022-10-22T20:52:59.032Z,97948.25
2022-10-22T20:55:03.401Z,97944.72
2022-10-22T20:57:04.730Z,97948.72
2022-10-22T20:59:07.959Z,97813.78
2022-10-22T21:01:10.697Z,97942.75
2022-10-22T21:03:12.042Z,97954.63
2022-10-22T21:05:13.394Z,97948.72
2022-10-22T21:07:14.646Z,97951.19
2022-10-22T21:09:16.424Z,97955.81
2022-10-22T21:11:17.858Z,97951.97
2022-10-22T21:13:19.554Z,97951.34
2022-10-22T21:15:20.834Z,97951.38
2022-10-22T21:17:22.318Z,97953.09
2022-10-22T21:19:24.774Z,97950.63
2022-10-22T21:21:26.026Z,97960.84
2022-10-22T21:23:27.338Z,97955.00
2022-10-22T21:25:28.632Z,97969.44
2022-10-22T21:27:29.892Z,97960.16
2022-10-22T21:29:32.250Z,97963.53
2022-10-22T21:31:33.525Z,97966.03
2022-10-22T21:33:37.886Z,97959.06
2022-10-22T21:35:39.785Z,97959.13
2022-10-22T21:37:44.390Z,97954.78
2022-10-22T21:39:45.754Z,97959.81
2022-10-22T21:41:47.101Z,97959.38
2022-10-22T21:43:48.414Z,97964.94
2022-10-22T21:45:49.717Z,97965.56
2022-10-22T21:47:51.000Z,97974.75
2022-10-22T21:49:52.498Z,97969.56
2022-10-22T21:51:53.774Z,97959.38
2022-10-22T21:53:55.250Z,97964.44
2022-10-22T21:55:56.621Z,97973.88
2022-10-22T21:57:57.915Z,97965.34
2022-10-22T21:59:59.253Z,97966.97
2022-10-22T22:02:04.866Z,97963.56
2022-10-22T22:04:07.290Z,97967.91
2022-10-22T22:06:11.533Z,97969.34
2022-10-22T22:08:13.513Z,97975.50
2022-10-22T22:10:14.806Z,97976.09
2022-10-22T22:12:16.095Z,97976.28
2022-10-22T22:14:17.390Z,97972.94
2022-10-22T22:16:21.193Z,97977.13
2022-10-22T22:18:25.193Z,97968.28
2022-10-22T22:20:26.527Z,97968.59
2022-10-22T22:22:28.038Z,97969.47
2022-10-22T22:24:29.323Z,97968.59
2022-10-22T22:26:30.633Z,97972.94
2022-10-22T22:28:31.905Z,97972.00
2022-10-22T22:30:33.869Z,97971.31
2022-10-22T22:32:35.146Z,97961.97
2022-10-22T22:34:36.439Z,97959.91
2022-10-22T22:36:37.711Z,97970.13
2022-10-22T22:38:39.337Z,97968.88
2022-10-22T22:40:41.186Z,97972.59
2022-10-22T22:42:42.442Z,97972.09
2022-10-22T22:44:43.718Z,97970.13
2022-10-22T22:46:44.985Z,97961.53
2022-10-22T22:48:46.258Z,97963.22
2022-10-22T22:50:47.527Z,97968.31
2022-10-22T22:52:48.814Z,97960.69
2022-10-22T22:54:50.092Z,97959.91
2022-10-22T22:56:51.440Z,97955.69
2022-10-22T22:58:52.740Z,97958.31
2022-10-22T23:00:54.056Z,97957.47
2022-10-22T23:02:55.653Z,97950.59
2022-10-22T23:04:56.954Z,97961.72
2022-10-22T23:06:58.242Z,97954.91
2022-10-22T23:08:59.952Z,97962.63
2022-10-22T23:11:01.379Z,97966.03
2022-10-22T23:13:02.646Z,97966.84
2022-10-22T23:15:03.929Z,97967.72
2022-10-22T23:17:05.222Z,97959.25
2022-10-22T23:19:06.520Z,97961.81
2022-10-22T23:21:07.910Z,97965.16
2022-10-22T23:23:09.231Z,97959.25
2022-10-22T23:25:10.541Z,97963.59
2022-10-22T23:27:11.810Z,97963.66
2022-10-22T23:29:13.090Z,97961.88
2022-10-22T23:31:14.410Z,97966.06
2022-10-22T23:33:16.377Z,97959.97
2022-10-22T23:35:17.638Z,97958.19
2022-10-22T23:37:18.962Z,97967.50
2022-10-22T23:39:20.221Z,97955.56
2022-10-22T23:41:21.492Z,97953.00
2022-10-22T23:43:22.958Z,97956.44
2022-10-22T23:45:24.231Z,97945.47
2022-10-22T23:47:25.544Z,97954.00
2022-10-22T23:49:26.859Z,97951.50
2022-10-22T23:51:28.206Z,97945.53
2022-10-22T23:53:29.477Z,97954.94